createdAt,value
2023-05-10T17:42:41.780Z,19.83
2023-05-10T17:45:08.800Z,19.92
2023-05-10T17:47:35.450Z,20.03
2023-05-10T17:50:01.938Z,19.87
2023-05-10T17:52:31.391Z,20.04
2023-05-10T17:54:59.434Z,20.02
2023-05-10T17:57:26.019Z,19.93
2023-05-10T17:59:52.447Z,20.08
2023-05-10T18:02:18.860Z,20.21
2023-05-10T18:04:45.418Z,20.17
2023-05-10T18:07:11.877Z,20.27
2023-05-10T18:09:38.279Z,20.30
2023-05-10T18:12:05.901Z,20.23
2023-05-10T18:14:40.581Z,20.23
2023-05-10T18:17:08.213Z,20.08
2023-05-10T18:19:34.750Z,20.14
2023-05-10T18:22:01.211Z,20.19
2023-05-10T18:24:38.295Z,20.13
2023-05-10T18:27:09.644Z,20.13
2023-05-10T18:29:36.969Z,20.08
2023-05-10T18:32:03.426Z,20.06
2023-05-10T18:34:29.832Z,19.97
2023-05-10T18:36:56.443Z,19.98
2023-05-10T18:39:23.331Z,19.92
2023-05-10T18:41:50.153Z,20.01
2023-05-10T18:44:16.574Z,20.01
2023-05-10T18:46:43.076Z,20.00
2023-05-10T18:49:09.571Z,20.06
2023-05-10T18:51:35.993Z,19.95
2023-05-10T18:54:02.415Z,19.87
2023-05-10T18:56:28.886Z,19.79
2023-05-10T18:58:55.343Z,19.71
2023-05-10T19:01:21.928Z,19.62
2023-05-10T19:03:48.361Z,19.54
2023-05-10T19:06:14.847Z,19.50
2023-05-10T19:08:41.256Z,19.47
2023-05-10T19:11:07.716Z,19.43
2023-05-10T19:13:34.237Z,19.34
2023-05-10T19:16:06.041Z,19.31
2023-05-10T19:18:32.975Z,19.24
2023-05-10T19:21:02.312Z,19.21
2023-05-10T19:23:30.148Z,19.08
2023-05-10T19:25:56.736Z,19.08
2023-05-10T19:28:23.339Z,18.99
2023-05-10T19:30:50.319Z,18.98
2023-05-10T19:33:18.180Z,18.99
2023-05-10T19:35:45.197Z,18.82
2023-05-10T19:38:11.628Z,18.82
2023-05-10T19:40:38.126Z,18.76
2023-05-10T19:43:04.676Z,18.73
2023-05-10T19:45:31.117Z,18.70
2023-05-10T19:47:57.563Z,18.72
2023-05-10T19:50:24.090Z,18.74
2023-05-10T19:52:50.609Z,18.70
2023-05-10T19:55:29.150Z,18.74
2023-05-10T19:57:55.619Z,18.64
2023-05-10T20:00:22.719Z,18.64
2023-05-10T20:02:49.934Z,18.68
2023-05-10T20:05:16.720Z,18.61
2023-05-10T20:07:43.347Z,18.59
2023-05-10T20:10:10.652Z,18.67
2023-05-10T20:12:37.105Z,18.62
2023-05-10T20:15:04.157Z,18.56
2023-05-10T20:17:30.597Z,18.53
2023-05-10T20:19:57.162Z,18.45
2023-05-10T20:22:23.607Z,18.46
2023-05-10T20:24:50.057Z,18.43
2023-05-10T20:27:16.461Z,18.45
2023-05-10T20:29:42.866Z,18.45
2023-05-10T20:32:09.241Z,18.44
2023-05-10T20:34:35.668Z,18.44
2023-05-10T20:37:02.064Z,18.46
2023-05-10T20:39:29.356Z,18.47
2023-05-10T20:41:55.732Z,18.45
2023-05-10T20:44:22.137Z,18.40
2023-05-10T20:46:49.747Z,18.38
2023-05-10T20:49:16.179Z,18.42
2023-05-10T20:51:42.570Z,18.39
2023-05-10T20:54:09.038Z,18.34
2023-05-10T20:56:35.435Z,18.39
2023-05-10T20:59:01.849Z,18.37
2023-05-10T21:01:28.268Z,18.37
2023-05-10T21:03:54.662Z,18.33
2023-05-10T21:06:21.068Z,18.38
2023-05-10T21:08:47.462Z,18.35
2023-05-10T21:11:14.084Z,18.35
2023-05-10T21:13:40.566Z,18.35
2023-05-10T21:16:07.021Z,18.32
2023-05-10T21:18:33.446Z,18.25
2023-05-10T21:20:59.898Z,18.27
2023-05-10T21:23:26.315Z,18.17
2023-05-10T21:25:53.505Z,18.18
2023-05-10T21:28:19.977Z,18.13
2023-05-10T21:30:46.473Z,18.09
2023-05-10T21:33:12.891Z,18.04
2023-05-10T21:35:42.686Z,17.95
2023-05-10T21:38:09.736Z,17.99
2023-05-10T21:40:36.473Z,17.93
2023-05-10T21:43:03.056Z,17.96
2023-05-10T21:45:32.717Z,17.90
2023-05-10T21:47:59.917Z,17.89
2023-05-10T21:50:27.070Z,17.89
2023-05-10T21:52:53.509Z,17.91
2023-05-10T21:55:20.133Z,17.94
2023-05-10T21:57:46.719Z,17.90
2023-05-10T22:00:13.685Z,17.82
2023-05-10T22:02:40.517Z,17.83
2023-05-10T22:05:07.341Z,17.81
2023-05-10T22:07:34.085Z,17.68
2023-05-10T22:10:00.785Z,17.72
2023-05-10T22:12:27.248Z,17.79
2023-05-10T22:15:06.341Z,17.74
2023-05-10T22:17:38.568Z,17.76
2023-05-10T22:20:09.290Z,17.75
2023-05-10T22:22:36.690Z,17.74
2023-05-10T22:25:03.791Z,17.74
2023-05-10T22:27:30.208Z,17.69
2023-05-10T22:29:56.615Z,17.66
2023-05-10T22:32:23.050Z,17.65
2023-05-10T22:34:49.610Z,17.65
2023-05-10T22:37:17.890Z,17.54
2023-05-10T22:39:48.744Z,17.54
2023-05-10T22:42:15.584Z,17.50
2023-05-10T22:44:42.676Z,17.49
2023-05-10T22:47:09.145Z,17.49
2023-05-10T22:49:35.570Z,17.50
2023-05-10T22:52:02.176Z,17.45
2023-05-10T22:54:28.561Z,17.41
2023-05-10T22:56:56.410Z,17.31
2023-05-10T22:59:23.352Z,17.29
2023-05-10T23:01:49.787Z,17.21
2023-05-10T23:04:16.250Z,17.20
2023-05-10T23:06:42.718Z,17.08
2023-05-10T23:09:09.754Z,17.04
2023-05-10T23:11:36.192Z,16.99
2023-05-10T23:14:02.682Z,16.98
2023-05-10T23:16:29.497Z,16.81
2023-05-10T23:18:56.088Z,16.84
2023-05-10T23:21:22.611Z,16.84
2023-05-10T23:23:49.323Z,16.78
2023-05-10T23:26:16.270Z,16.72
2023-05-10T23:28:42.679Z,16.72
2023-05-10T23:31:09.133Z,16.66
2023-05-10T23:33:35.569Z,16.59
2023-05-10T23:36:01.972Z,16.58
2023-05-10T23:38:28.369Z,16.53
2023-05-10T23:40:54.958Z,16.47
2023-05-10T23:43:21.769Z,16.44
2023-05-10T23:45:58.080Z,16.40
2023-05-10T23:48:24.862Z,16.34
2023-05-10T23:50:51.269Z,16.31
2023-05-10T23:53:17.710Z,16.23
2023-05-10T23:55:44.312Z,16.25
2023-05-10T23:58:10.725Z,16.08
